Time;durP1;ratioP1;P1;durP2;ratioP2;P2;SDS_P1;SDS_P2;PMS_P1;PMS_P2;Temp;Humidity;BMP_temperature;BMP_pressure;BME280_temperature;BME280_humidity;BME280_pressure;Samples;Min_cycle;Max_cycle;Signal;HPM_P1;HPM_P2
2024/01/20 00:01:01;;;;;;;41.00;9.25;;;;;;;;;;5023776;28;20026;-55
2024/01/20 00:03:28;;;;;;;27.73;9.38;;;;;;;;;;5024485;28;20022;-57
2024/01/20 00:05:54;;;;;;;45.13;10.18;;;;;;;;;;5024796;28;20325;-56
2024/01/20 00:08:21;;;;;;;42.63;9.68;;;;;;;;;;5024514;28;20021;-55
2024/01/20 00:10:47;;;;;;;43.25;9.80;;;;;;;;;;5024393;28;20042;-57
2024/01/20 00:13:14;;;;;;;47.47;10.27;;;;;;;;;;5024203;28;20018;-57
2024/01/20 00:15:41;;;;;;;43.60;9.68;;;;;;;;;;5024621;28;20088;-53
2024/01/20 00:18:07;;;;;;;89.10;13.85;;;;;;;;;;5021511;28;20017;-57
2024/01/20 00:20:34;;;;;;;39.38;9.77;;;;;;;;;;5022654;28;20068;-57
2024/01/20 00:23:01;;;;;;;28.67;8.45;;;;;;;;;;5024185;28;20049;-59
2024/01/20 00:25:27;;;;;;;217.52;24.42;;;;;;;;;;5024378;28;20029;-58
2024/01/20 00:27:54;;;;;;;48.22;11.10;;;;;;;;;;5023971;28;20022;-54
2024/01/20 00:30:21;;;;;;;33.28;10.80;;;;;;;;;;5022373;28;20038;-55
2024/01/20 00:32:47;;;;;;;40.58;12.02;;;;;;;;;;5022106;28;20022;-53
2024/01/20 00:35:14;;;;;;;30.73;12.98;;;;;;;;;;5024177;28;20035;-60
2024/01/20 00:37:40;;;;;;;86.32;16.65;;;;;;;;;;5013117;28;20018;-57
2024/01/20 00:40:07;;;;;;;51.03;14.70;;;;;;;;;;5019001;28;20030;-56
2024/01/20 00:42:34;;;;;;;35.45;13.07;;;;;;;;;;5023816;28;20044;-54
2024/01/20 00:45:01;;;;;;;26.95;12.05;;;;;;;;;;5022164;28;20042;-55
2024/01/20 00:47:30;;;;;;;55.30;13.75;;;;;;;;;;5018956;28;20029;-55
2024/01/20 00:49:57;;;;;;;161.77;18.48;;;;;;;;;;5016413;28;20306;-62
2024/01/20 00:52:23;;;;;;;39.97;11.10;;;;;;;;;;5027801;28;20018;-58
2024/01/20 00:54:50;;;;;;;65.70;11.95;;;;;;;;;;5027999;28;20028;-58
2024/01/20 00:57:17;;;;;;;39.17;9.95;;;;;;;;;;5027757;28;20081;-55
2024/01/20 00:59:45;;;;;;;50.13;10.70;;;;;;;;;;5026056;28;20080;-54
2024/01/20 01:02:12;;;;;;;32.38;9.00;;;;;;;;;;5018865;28;20057;-51
2024/01/20 01:04:38;;;;;;;28.88;8.63;;;;;;;;;;5018084;28;20060;-55
2024/01/20 01:07:05;;;;;;;30.58;9.25;;;;;;;;;;5023722;28;20366;-56
2024/01/20 01:09:32;;;;;;;221.98;26.67;;;;;;;;;;5025037;28;20037;-57
2024/01/20 01:11:58;;;;;;;25.15;8.30;;;;;;;;;;5020490;28;20018;-58
2024/01/20 01:14:25;;;;;;;23.13;7.57;;;;;;;;;;5023728;28;20179;-53
2024/01/20 01:16:51;;;;;;;82.93;10.90;;;;;;;;;;5018804;28;20021;-54
2024/01/20 01:19:18;;;;;;;35.47;8.98;;;;;;;;;;5018275;28;20038;-50
2024/01/20 01:21:45;;;;;;;19.65;7.88;;;;;;;;;;5018464;28;20025;-56
2024/01/20 01:24:12;;;;;;;25.73;8.05;;;;;;;;;;5018726;28;20212;-55
2024/01/20 01:26:38;;;;;;;23.40;8.63;;;;;;;;;;5018242;28;20241;-52
2024/01/20 01:29:05;;;;;;;20.60;8.20;;;;;;;;;;5018941;28;20034;-53
2024/01/20 01:31:32;;;;;;;17.23;7.97;;;;;;;;;;5020827;28;20022;-53
2024/01/20 01:33:59;;;;;;;24.42;8.20;;;;;;;;;;5023028;28;20014;-55
2024/01/20 01:36:25;;;;;;;25.63;8.35;;;;;;;;;;5018038;28;20068;-59
2024/01/20 01:38:52;;;;;;;20.52;8.82;;;;;;;;;;5020361;28;20009;-54
2024/01/20 01:41:19;;;;;;;19.40;7.97;;;;;;;;;;5019642;28;20026;-56
2024/01/20 01:43:46;;;;;;;23.42;8.27;;;;;;;;;;5019784;28;20033;-54
2024/01/20 01:46:12;;;;;;;33.33;8.40;;;;;;;;;;5017326;28;20030;-59
2024/01/20 01:48:39;;;;;;;12.18;7.00;;;;;;;;;;5015883;28;20090;-59
2024/01/20 01:51:06;;;;;;;17.05;7.32;;;;;;;;;;5018954;28;20374;-54
2024/01/20 01:53:33;;;;;;;18.30;7.05;;;;;;;;;;5022141;28;20022;-57
2024/01/20 01:56:03;;;;;;;13.02;7.03;;;;;;;;;;5019687;28;20365;-57
2024/01/20 01:58:29;;;;;;;18.75;7.28;;;;;;;;;;5018527;28;20045;-58
2024/01/20 02:00:56;;;;;;;14.32;6.47;;;;;;;;;;5019625;28;20069;-57
2024/01/20 02:03:23;;;;;;;11.90;6.50;;;;;;;;;;5018116;28;20090;-56
2024/01/20 02:05:50;;;;;;;15.18;6.40;;;;;;;;;;5017496;28;20021;-55
2024/01/20 02:08:17;;;;;;;10.60;6.57;;;;;;;;;;5019115;28;20133;-59
2024/01/20 02:10:46;;;;;;;14.88;6.90;;;;;;;;;;5017409;28;20046;-58
2024/01/20 02:13:13;;;;;;;18.02;7.13;;;;;;;;;;5014593;28;20060;-55
2024/01/20 02:15:40;;;;;;;26.10;7.50;;;;;;;;;;5021882;28;20042;-59
2024/01/20 02:18:07;;;;;;;12.35;6.63;;;;;;;;;;5014938;28;20014;-59
2024/01/20 02:20:33;;;;;;;34.83;7.40;;;;;;;;;;5020478;28;20190;-56
2024/01/20 02:23:00;;;;;;;26.92;7.40;;;;;;;;;;5020585;28;20025;-59
2024/01/20 02:25:27;;;;;;;13.73;6.47;;;;;;;;;;5021469;28;20324;-56
2024/01/20 02:27:53;;;;;;;20.38;7.28;;;;;;;;;;5017143;28;20022;-54
2024/01/20 02:30:20;;;;;;;10.88;6.80;;;;;;;;;;5020554;28;20270;-53
2024/01/20 02:32:50;;;;;;;10.00;6.55;;;;;;;;;;5017352;28;20028;-52
2024/01/20 02:35:21;;;;;;;15.77;6.85;;;;;;;;;;5015799;28;20109;-53
2024/01/20 02:37:48;;;;;;;24.23;7.50;;;;;;;;;;5020424;28;20113;-46
2024/01/20 02:40:14;;;;;;;27.95;7.80;;;;;;;;;;5020841;28;20166;-53
2024/01/20 02:42:41;;;;;;;18.85;7.25;;;;;;;;;;5019944;28;20025;-49
2024/01/20 02:45:08;;;;;;;13.02;6.88;;;;;;;;;;5006393;28;20034;-51
2024/01/20 02:47:34;;;;;;;14.45;7.50;;;;;;;;;;5007972;28;20026;-55
2024/01/20 02:50:01;;;;;;;10.48;7.22;;;;;;;;;;5020575;28;20021;-49
2024/01/20 02:52:28;;;;;;;13.15;6.90;;;;;;;;;;5015106;28;20013;-50
2024/01/20 02:54:54;;;;;;;13.75;6.80;;;;;;;;;;5018015;28;20030;-47
2024/01/20 02:57:21;;;;;;;12.93;7.22;;;;;;;;;;5018425;28;20014;-45
2024/01/20 02:59:48;;;;;;;10.52;6.80;;;;;;;;;;5020337;28;20043;-50
2024/01/20 03:02:15;;;;;;;12.18;6.85;;;;;;;;;;5020685;28;20220;-48
2024/01/20 03:04:41;;;;;;;12.20;6.97;;;;;;;;;;5021020;28;20026;-51
2024/01/20 03:07:11;;;;;;;15.48;7.28;;;;;;;;;;5020749;28;20344;-51
2024/01/20 03:09:37;;;;;;;9.38;6.70;;;;;;;;;;5019548;28;20042;-48
2024/01/20 03:12:04;;;;;;;20.52;7.00;;;;;;;;;;5020413;28;20325;-53
2024/01/20 03:14:31;;;;;;;11.20;7.22;;;;;;;;;;5019375;28;20129;-52
2024/01/20 03:16:57;;;;;;;14.38;7.68;;;;;;;;;;5017019;28;20326;-47
2024/01/20 03:19:27;;;;;;;10.93;6.72;;;;;;;;;;5017355;28;20651;-47
2024/01/20 03:21:53;;;;;;;11.88;7.40;;;;;;;;;;5016947;28;20317;-53
2024/01/20 03:24:23;;;;;;;11.65;7.20;;;;;;;;;;5015931;28;20317;-51
2024/01/20 03:26:50;;;;;;;10.45;6.70;;;;;;;;;;5019367;28;20107;-52
2024/01/20 03:29:17;;;;;;;11.05;7.30;;;;;;;;;;5013327;28;20030;-49
2024/01/20 03:31:43;;;;;;;13.50;7.35;;;;;;;;;;5010337;28;20022;-49
2024/01/20 03:34:10;;;;;;;11.25;7.70;;;;;;;;;;5007144;28;20089;-54
2024/01/20 03:36:37;;;;;;;10.60;7.47;;;;;;;;;;5015817;28;20032;-55
2024/01/20 03:39:03;;;;;;;10.93;7.97;;;;;;;;;;5016256;28;20021;-50
2024/01/20 03:41:30;;;;;;;12.10;7.53;;;;;;;;;;5015648;28;20046;-47
2024/01/20 03:43:57;;;;;;;14.27;8.05;;;;;;;;;;5014357;28;20022;-44
2024/01/20 03:46:23;;;;;;;15.15;7.82;;;;;;;;;;5014233;28;20020;-45
2024/01/20 03:48:50;;;;;;;15.38;7.30;;;;;;;;;;5012798;28;20022;-49
2024/01/20 03:51:16;;;;;;;12.55;8.27;;;;;;;;;;5014815;28;20045;-55
2024/01/20 03:53:43;;;;;;;10.27;8.25;;;;;;;;;;5013761;28;20021;-48
2024/01/20 03:56:10;;;;;;;12.15;7.82;;;;;;;;;;5013438;28;20097;-56
2024/01/20 03:58:37;;;;;;;12.85;8.32;;;;;;;;;;5013039;28;20065;-48
2024/01/20 04:01:04;;;;;;;14.13;8.65;;;;;;;;;;5013234;28;20048;-50
2024/01/20 04:03:31;;;;;;;12.48;8.07;;;;;;;;;;5015002;28;20177;-46
2024/01/20 04:05:57;;;;;;;12.10;7.80;;;;;;;;;;5013681;28;20030;-46
2024/01/20 04:08:24;;;;;;;11.73;8.43;;;;;;;;;;5013833;28;20016;-45
2024/01/20 04:10:50;;;;;;;10.02;8.55;;;;;;;;;;5014657;28;20057;-45
2024/01/20 04:13:17;;;;;;;15.73;8.50;;;;;;;;;;5012996;28;20018;-47
2024/01/20 04:15:44;;;;;;;13.70;8.18;;;;;;;;;;5014124;28;20026;-49
2024/01/20 04:18:10;;;;;;;13.68;8.30;;;;;;;;;;5009090;28;20022;-44
2024/01/20 04:20:37;;;;;;;13.90;8.57;;;;;;;;;;5020612;28;20025;-48
2024/01/20 04:23:04;;;;;;;10.18;8.27;;;;;;;;;;5023725;28;20064;-46
2024/01/20 04:25:31;;;;;;;10.02;7.53;;;;;;;;;;5023619;28;20036;-44
2024/01/20 04:27:57;;;;;;;13.15;8.05;;;;;;;;;;5023867;28;20022;-43
2024/01/20 04:30:24;;;;;;;10.68;8.27;;;;;;;;;;5022641;28;20105;-43
2024/01/20 04:32:50;;;;;;;14.23;8.25;;;;;;;;;;5013296;28;20026;-43
2024/01/20 04:35:17;;;;;;;9.80;7.95;;;;;;;;;;5004578;28;20090;-44
2024/01/20 04:37:43;;;;;;;12.00;8.48;;;;;;;;;;5004415;28;20018;-45
2024/01/20 04:40:10;;;;;;;12.18;8.60;;;;;;;;;;5004465;28;20034;-47
2024/01/20 04:42:37;;;;;;;12.40;8.25;;;;;;;;;;5004466;28;20093;-44
2024/01/20 04:45:04;;;;;;;11.63;8.07;;;;;;;;;;5004503;28;20036;-46
2024/01/20 04:47:33;;;;;;;11.35;8.68;;;;;;;;;;5005053;28;20373;-49
2024/01/20 04:49:59;;;;;;;10.15;8.25;;;;;;;;;;5004168;28;20038;-51
2024/01/20 04:52:26;;;;;;;12.13;7.88;;;;;;;;;;5014861;28;20018;-49
2024/01/20 04:54:52;;;;;;;12.10;8.23;;;;;;;;;;5013179;28;20202;-50
2024/01/20 04:57:22;;;;;;;10.60;8.23;;;;;;;;;;5017729;28;20018;-49
2024/01/20 04:59:48;;;;;;;12.50;8.80;;;;;;;;;;5004519;28;20195;-46
2024/01/20 05:02:15;;;;;;;11.73;9.13;;;;;;;;;;5008880;28;20025;-44
2024/01/20 05:04:42;;;;;;;10.30;8.88;;;;;;;;;;5023475;28;20032;-47
2024/01/20 05:07:08;;;;;;;11.30;8.85;;;;;;;;;;5023659;28;20018;-57
2024/01/20 05:09:35;;;;;;;10.63;8.25;;;;;;;;;;5023236;28;20325;-45
2024/01/20 05:12:02;;;;;;;12.15;8.75;;;;;;;;;;5023531;28;20026;-44
2024/01/20 05:14:28;;;;;;;12.65;8.63;;;;;;;;;;5023655;28;20032;-49
2024/01/20 05:16:55;;;;;;;11.23;8.52;;;;;;;;;;5023660;28;20021;-45
2024/01/20 05:19:21;;;;;;;10.57;8.70;;;;;;;;;;5023622;28;20053;-48
2024/01/20 05:21:48;;;;;;;11.57;9.27;;;;;;;;;;5017307;28;20022;-44
2024/01/20 05:24:15;;;;;;;10.77;8.60;;;;;;;;;;5014681;28;20030;-46
2024/01/20 05:26:41;;;;;;;13.50;8.88;;;;;;;;;;5003846;28;20052;-50
2024/01/20 05:29:08;;;;;;;10.40;8.95;;;;;;;;;;5003446;28;20033;-45
2024/01/20 05:31:34;;;;;;;10.98;9.20;;;;;;;;;;5003827;28;20018;-43
2024/01/20 05:34:01;;;;;;;13.52;9.55;;;;;;;;;;5005497;28;20022;-44
2024/01/20 05:36:28;;;;;;;16.70;9.68;;;;;;;;;;5007276;28;20114;-47
2024/01/20 05:38:54;;;;;;;13.10;9.38;;;;;;;;;;5007272;28;20022;-43
2024/01/20 05:41:21;;;;;;;11.25;9.20;;;;;;;;;;5006609;28;20053;-46
2024/01/20 05:43:47;;;;;;;12.77;9.43;;;;;;;;;;5006507;28;20022;-47
2024/01/20 05:46:14;;;;;;;14.88;9.98;;;;;;;;;;5006813;28;20022;-52
2024/01/20 05:48:40;;;;;;;13.43;9.73;;;;;;;;;;5007090;28;20018;-52
2024/01/20 05:51:07;;;;;;;13.85;9.70;;;;;;;;;;5006747;28;20076;-55
2024/01/20 05:53:34;;;;;;;14.30;9.82;;;;;;;;;;5006975;28;20337;-51
2024/01/20 05:56:00;;;;;;;13.55;9.68;;;;;;;;;;5007382;28;20034;-48
2024/01/20 05:58:27;;;;;;;11.50;9.43;;;;;;;;;;5006775;28;20026;-44
2024/01/20 06:00:54;;;;;;;14.05;9.38;;;;;;;;;;5007244;28;20026;-52
2024/01/20 06:03:21;;;;;;;16.60;9.40;;;;;;;;;;5006766;28;20031;-45
2024/01/20 06:05:48;;;;;;;14.57;8.90;;;;;;;;;;5007029;28;20025;-44
2024/01/20 06:08:15;;;;;;;11.48;8.98;;;;;;;;;;5006654;28;20033;-44
2024/01/20 06:10:41;;;;;;;11.18;8.90;;;;;;;;;;5006482;28;20098;-42
2024/01/20 06:13:08;;;;;;;13.80;9.20;;;;;;;;;;5006453;28;20025;-44
2024/01/20 06:15:34;;;;;;;10.13;7.95;;;;;;;;;;5006985;28;20026;-49
2024/01/20 06:18:01;;;;;;;12.23;8.38;;;;;;;;;;5006792;28;20333;-43
2024/01/20 06:20:28;;;;;;;10.90;8.55;;;;;;;;;;5006680;28;20038;-45
2024/01/20 06:22:55;;;;;;;10.88;8.77;;;;;;;;;;5006463;28;20029;-47
2024/01/20 06:25:21;;;;;;;10.32;8.48;;;;;;;;;;5006636;28;20034;-45
2024/01/20 06:27:48;;;;;;;11.07;8.35;;;;;;;;;;5006184;28;20065;-46
2024/01/20 06:30:15;;;;;;;11.13;8.80;;;;;;;;;;5006438;28;20037;-45
2024/01/20 06:32:41;;;;;;;11.80;8.40;;;;;;;;;;5006171;28;20010;-48
2024/01/20 06:35:08;;;;;;;12.75;8.48;;;;;;;;;;5006322;28;20026;-49
2024/01/20 06:37:35;;;;;;;16.40;8.90;;;;;;;;;;5006151;28;20382;-44
2024/01/20 06:40:02;;;;;;;13.50;8.65;;;;;;;;;;5006630;28;20034;-50
2024/01/20 06:42:28;;;;;;;15.23;8.57;;;;;;;;;;5006155;28;20057;-51
2024/01/20 06:44:55;;;;;;;11.85;8.55;;;;;;;;;;5006316;28;20061;-45
2024/01/20 06:47:22;;;;;;;13.73;8.98;;;;;;;;;;5006256;28;20034;-45
2024/01/20 06:49:50;;;;;;;11.02;8.63;;;;;;;;;;5005994;28;20251;-44
2024/01/20 06:52:19;;;;;;;9.48;8.18;;;;;;;;;;5006418;28;20266;-45
2024/01/20 06:54:46;;;;;;;11.10;7.88;;;;;;;;;;5006137;28;20214;-45
2024/01/20 06:57:13;;;;;;;11.70;8.52;;;;;;;;;;5005859;28;20022;-45
2024/01/20 06:59:39;;;;;;;13.00;8.25;;;;;;;;;;5006317;28;20044;-52
2024/01/20 07:02:06;;;;;;;14.10;8.50;;;;;;;;;;5005926;28;20030;-52
2024/01/20 07:04:33;;;;;;;11.52;8.07;;;;;;;;;;5005933;28;20259;-53
2024/01/20 07:06:59;;;;;;;11.45;8.52;;;;;;;;;;5005485;28;20022;-55
2024/01/20 07:09:26;;;;;;;9.50;7.55;;;;;;;;;;5005419;28;20102;-54
2024/01/20 07:11:55;;;;;;;10.38;7.90;;;;;;;;;;5005453;28;20022;-49
2024/01/20 07:14:23;;;;;;;9.73;7.57;;;;;;;;;;5005328;28;20026;-52
2024/01/20 07:16:50;;;;;;;11.07;8.13;;;;;;;;;;5005487;28;20199;-52
2024/01/20 07:19:16;;;;;;;11.02;7.70;;;;;;;;;;5005498;28;20026;-53
2024/01/20 07:21:43;;;;;;;11.20;7.18;;;;;;;;;;5005234;28;20071;-50
2024/01/20 07:24:09;;;;;;;11.90;7.85;;;;;;;;;;5005546;28;20030;-52
2024/01/20 07:26:36;;;;;;;13.07;7.70;;;;;;;;;;5005252;28;20022;-52
2024/01/20 07:29:03;;;;;;;10.85;7.20;;;;;;;;;;5005129;28;20022;-53
2024/01/20 07:31:29;;;;;;;9.98;7.20;;;;;;;;;;5005255;28;20069;-57
2024/01/20 07:33:56;;;;;;;10.80;8.10;;;;;;;;;;5005223;28;20202;-54
2024/01/20 07:36:22;;;;;;;10.35;7.38;;;;;;;;;;5005066;28;20241;-55
2024/01/20 07:38:49;;;;;;;12.02;7.65;;;;;;;;;;5010385;28;20280;-52
2024/01/20 07:41:16;;;;;;;8.27;7.28;;;;;;;;;;5023807;28;20025;-54
2024/01/20 07:43:42;;;;;;;9.18;7.25;;;;;;;;;;5004950;28;20069;-54
2024/01/20 07:46:09;;;;;;;9.00;7.50;;;;;;;;;;5005571;28;20030;-53
2024/01/20 07:48:35;;;;;;;10.52;7.38;;;;;;;;;;5005237;28;20179;-50
2024/01/20 07:51:02;;;;;;;10.15;7.15;;;;;;;;;;5017118;28;20036;-54
2024/01/20 07:53:30;;;;;;;11.05;7.40;;;;;;;;;;5024664;28;20025;-50
2024/01/20 07:55:56;;;;;;;9.85;7.10;;;;;;;;;;5024418;28;20350;-49
2024/01/20 07:58:23;;;;;;;9.68;7.25;;;;;;;;;;5024306;28;20194;-52
2024/01/20 08:00:49;;;;;;;9.93;7.47;;;;;;;;;;5024780;28;20199;-52
2024/01/20 08:03:16;;;;;;;9.40;7.00;;;;;;;;;;5024462;28;20064;-52
2024/01/20 08:05:43;;;;;;;8.88;7.00;;;;;;;;;;5023093;28;20221;-49
2024/01/20 08:08:10;;;;;;;7.78;6.75;;;;;;;;;;5024287;28;20321;-47
2024/01/20 08:10:37;;;;;;;9.93;7.05;;;;;;;;;;5024061;28;20049;-52
2024/01/20 08:13:03;;;;;;;11.57;7.35;;;;;;;;;;5024105;28;20025;-52
2024/01/20 08:15:30;;;;;;;8.88;6.90;;;;;;;;;;5024793;28;20033;-52
2024/01/20 08:17:57;;;;;;;11.20;7.10;;;;;;;;;;5024144;28;20337;-49
2024/01/20 08:20:24;;;;;;;9.00;6.80;;;;;;;;;;5024071;28;20034;-55
2024/01/20 08:22:50;;;;;;;8.40;6.88;;;;;;;;;;5024013;28;20084;-48
2024/01/20 08:25:17;;;;;;;9.20;6.22;;;;;;;;;;5024339;28;20301;-52
2024/01/20 08:27:43;;;;;;;11.75;7.15;;;;;;;;;;5024015;28;20044;-49
2024/01/20 08:30:10;;;;;;;10.23;6.90;;;;;;;;;;5024194;28;20076;-46
2024/01/20 08:32:39;;;;;;;10.27;7.20;;;;;;;;;;5023920;28;20017;-51
2024/01/20 08:35:06;;;;;;;9.43;7.18;;;;;;;;;;5024262;28;20092;-47
2024/01/20 08:37:32;;;;;;;8.32;6.60;;;;;;;;;;5023946;28;20076;-55
2024/01/20 08:39:59;;;;;;;10.65;7.38;;;;;;;;;;5024321;28;20026;-47
2024/01/20 08:42:26;;;;;;;9.40;6.68;;;;;;;;;;5023872;28;20034;-50
2024/01/20 08:44:53;;;;;;;8.88;7.18;;;;;;;;;;5023954;28;20076;-52
2024/01/20 08:47:19;;;;;;;10.20;7.20;;;;;;;;;;5024070;28;20022;-56
2024/01/20 08:49:51;;;;;;;9.88;6.72;;;;;;;;;;5024043;28;20054;-53
2024/01/20 08:52:20;;;;;;;8.65;7.35;;;;;;;;;;5024147;28;20028;-46
2024/01/20 08:54:47;;;;;;;10.15;7.60;;;;;;;;;;5023982;28;20036;-50
2024/01/20 08:57:14;;;;;;;9.23;6.75;;;;;;;;;;5024001;28;20381;-51
2024/01/20 08:59:40;;;;;;;8.77;7.10;;;;;;;;;;5024704;28;20233;-48
2024/01/20 09:02:07;;;;;;;11.02;7.47;;;;;;;;;;5023916;28;20333;-49
2024/01/20 09:04:34;;;;;;;12.90;7.15;;;;;;;;;;5023676;28;20026;-48
2024/01/20 09:07:01;;;;;;;7.65;6.85;;;;;;;;;;5023985;28;20032;-45
2024/01/20 09:09:27;;;;;;;9.43;6.30;;;;;;;;;;5026002;28;20033;-49
2024/01/20 09:11:54;;;;;;;13.77;7.35;;;;;;;;;;5027392;28;20329;-46
2024/01/20 09:14:20;;;;;;;8.02;6.90;;;;;;;;;;5027350;28;20109;-54
2024/01/20 09:16:47;;;;;;;8.73;7.15;;;;;;;;;;5027516;28;20021;-48
2024/01/20 09:19:14;;;;;;;10.68;7.47;;;;;;;;;;5027430;28;20214;-51
2024/01/20 09:21:44;;;;;;;9.38;6.95;;;;;;;;;;5027187;28;20242;-50
2024/01/20 09:24:11;;;;;;;10.77;7.32;;;;;;;;;;5027721;28;20053;-51
2024/01/20 09:26:37;;;;;;;11.77;6.88;;;;;;;;;;5027527;28;20089;-54
2024/01/20 09:29:04;;;;;;;7.80;6.78;;;;;;;;;;5026996;28;20043;-52
2024/01/20 09:31:31;;;;;;;12.65;7.05;;;;;;;;;;5027227;28;20017;-53
2024/01/20 09:33:57;;;;;;;7.50;6.07;;;;;;;;;;5026995;28;20025;-52
2024/01/20 09:36:24;;;;;;;9.38;6.72;;;;;;;;;;5027161;28;20016;-52
2024/01/20 09:38:50;;;;;;;8.77;6.50;;;;;;;;;;5026954;28;20082;-50
2024/01/20 09:41:17;;;;;;;13.07;6.78;;;;;;;;;;5027201;28;20257;-52
2024/01/20 09:43:44;;;;;;;13.13;6.70;;;;;;;;;;5026891;28;20025;-46
2024/01/20 09:46:11;;;;;;;11.52;6.70;;;;;;;;;;5027158;28;20029;-44
2024/01/20 09:48:38;;;;;;;16.67;7.10;;;;;;;;;;5026813;28;20072;-51
2024/01/20 09:51:05;;;;;;;21.45;6.63;;;;;;;;;;5026550;28;20030;-45
2024/01/20 09:53:31;;;;;;;14.60;7.35;;;;;;;;;;5026825;28;20028;-44
2024/01/20 09:55:58;;;;;;;14.85;7.03;;;;;;;;;;5026914;28;20072;-44
2024/01/20 09:58:27;;;;;;;14.55;7.22;;;;;;;;;;5026360;28;20022;-47
2024/01/20 10:00:54;;;;;;;16.23;6.90;;;;;;;;;;5026917;28;20321;-45
2024/01/20 10:03:25;;;;;;;12.63;7.32;;;;;;;;;;5026359;28;20060;-49
2024/01/20 10:05:52;;;;;;;12.43;7.10;;;;;;;;;;5026809;28;20206;-53
2024/01/20 10:08:18;;;;;;;14.05;7.22;;;;;;;;;;5026457;28;20021;-52
2024/01/20 10:10:45;;;;;;;14.25;7.75;;;;;;;;;;5026203;28;20038;-45
2024/01/20 10:13:14;;;;;;;12.73;6.88;;;;;;;;;;5026672;28;20018;-48
2024/01/20 10:15:41;;;;;;;10.52;6.75;;;;;;;;;;5026726;28;20037;-47
2024/01/20 10:18:11;;;;;;;12.13;7.00;;;;;;;;;;5026485;28;20025;-45
2024/01/20 10:20:38;;;;;;;13.15;6.85;;;;;;;;;;5026099;28;20030;-46
2024/01/20 10:23:07;;;;;;;13.13;7.47;;;;;;;;;;5026161;28;20021;-49
2024/01/20 10:25:33;;;;;;;14.80;7.35;;;;;;;;;;5026268;28;20030;-47
2024/01/20 10:28:00;;;;;;;15.25;6.70;;;;;;;;;;5026043;28;20028;-46
2024/01/20 10:30:28;;;;;;;12.18;7.43;;;;;;;;;;5025826;28;20034;-45
2024/01/20 10:32:55;;;;;;;10.30;6.72;;;;;;;;;;5026288;28;20026;-47
2024/01/20 10:35:22;;;;;;;10.25;7.15;;;;;;;;;;5026152;28;20026;-46
2024/01/20 10:37:51;;;;;;;11.15;6.85;;;;;;;;;;5026089;28;20021;-48
2024/01/20 10:40:18;;;;;;;10.32;7.50;;;;;;;;;;5026023;28;20298;-49
2024/01/20 10:42:46;;;;;;;12.15;7.60;;;;;;;;;;5025557;28;20021;-45
2024/01/20 10:45:19;;;;;;;9.98;7.07;;;;;;;;;;5025785;28;20066;-43
2024/01/20 10:47:52;;;;;;;12.18;7.22;;;;;;;;;;5025749;28;20025;-43
2024/01/20 10:50:19;;;;;;;9.35;7.03;;;;;;;;;;5025298;28;20068;-46
2024/01/20 10:52:46;;;;;;;13.65;7.28;;;;;;;;;;5025530;28;20081;-52
2024/01/20 10:55:13;;;;;;;14.45;7.90;;;;;;;;;;5025631;28;20088;-44
2024/01/20 10:57:40;;;;;;;10.25;6.95;;;;;;;;;;5025632;28;20029;-43
2024/01/20 11:00:10;;;;;;;12.77;6.85;;;;;;;;;;5025703;28;20036;-54
2024/01/20 11:02:37;;;;;;;21.48;7.50;;;;;;;;;;5025193;28;20368;-46
2024/01/20 11:05:03;;;;;;;19.50;7.68;;;;;;;;;;5025630;28;20033;-47
2024/01/20 11:07:30;;;;;;;17.55;7.72;;;;;;;;;;5025235;28;20029;-49
2024/01/20 11:09:57;;;;;;;22.67;8.13;;;;;;;;;;5024886;28;20049;-47
2024/01/20 11:12:24;;;;;;;14.70;7.47;;;;;;;;;;5025146;28;20021;-46
2024/01/20 11:14:54;;;;;;;15.73;7.43;;;;;;;;;;5025346;28;20053;-47
2024/01/20 11:17:21;;;;;;;19.52;7.10;;;;;;;;;;5025563;28;20040;-47
2024/01/20 11:19:48;;;;;;;13.98;7.70;;;;;;;;;;5025226;28;20025;-44
2024/01/20 11:22:33;;;;;;;16.38;7.60;;;;;;;;;;5010527;28;20058;-47
2024/01/20 11:25:04;;;;;;;55.08;11.75;;;;;;;;;;5005550;28;20089;-48
2024/01/20 11:27:31;;;;;;;29.30;9.63;;;;;;;;;;5005358;28;20068;-45
2024/01/20 11:30:04;;;;;;;27.30;9.95;;;;;;;;;;5005893;28;20031;-45
2024/01/20 11:32:31;;;;;;;26.35;9.40;;;;;;;;;;5005009;28;20257;-47
2024/01/20 11:34:58;;;;;;;23.95;9.57;;;;;;;;;;5005867;28;20033;-44
2024/01/20 11:37:25;;;;;;;19.63;9.32;;;;;;;;;;5005101;28;20018;-45
2024/01/20 11:40:02;;;;;;;21.05;9.50;;;;;;;;;;5004916;28;20026;-48
2024/01/20 11:42:29;;;;;;;30.90;10.23;;;;;;;;;;5005274;28;20024;-50
2024/01/20 11:44:56;;;;;;;26.90;10.43;;;;;;;;;;5005976;28;20042;-45
2024/01/20 11:47:22;;;;;;;19.77;10.02;;;;;;;;;;5005457;28;20221;-49
2024/01/20 11:49:54;;;;;;;20.48;9.75;;;;;;;;;;5005587;28;20037;-48
2024/01/20 11:52:23;;;;;;;18.70;9.60;;;;;;;;;;5005537;28;20317;-51
2024/01/20 11:54:49;;;;;;;23.52;9.23;;;;;;;;;;5005141;28;20068;-46
2024/01/20 11:57:32;;;;;;;28.08;9.50;;;;;;;;;;5004860;28;20014;-50
2024/01/20 11:59:59;;;;;;;22.40;8.82;;;;;;;;;;5004875;28;20037;-50
2024/01/20 12:02:27;;;;;;;34.78;9.55;;;;;;;;;;5004659;28;20026;-51
2024/01/20 12:04:55;;;;;;;24.60;9.00;;;;;;;;;;5004794;28;20060;-45
2024/01/20 12:07:22;;;;;;;31.92;8.98;;;;;;;;;;5004571;28;20026;-46
2024/01/20 12:09:49;;;;;;;29.77;9.23;;;;;;;;;;5004434;28;20089;-50
2024/01/20 12:12:17;;;;;;;38.90;10.15;;;;;;;;;;5004759;28;20093;-45
2024/01/20 12:14:44;;;;;;;25.77;9.35;;;;;;;;;;5004729;28;20145;-49
2024/01/20 12:17:12;;;;;;;19.42;8.80;;;;;;;;;;5004496;28;20028;-50
2024/01/20 12:19:39;;;;;;;35.10;9.43;;;;;;;;;;5004644;28;20271;-48
2024/01/20 12:22:09;;;;;;;28.52;8.57;;;;;;;;;;5004432;28;20022;-49
2024/01/20 12:24:36;;;;;;;21.35;9.10;;;;;;;;;;5004598;28;20084;-47
2024/01/20 12:27:04;;;;;;;27.13;8.88;;;;;;;;;;5004343;28;20029;-49
2024/01/20 12:29:31;;;;;;;26.52;8.75;;;;;;;;;;5004481;28;20081;-50
2024/01/20 12:31:58;;;;;;;19.33;8.40;;;;;;;;;;5004397;28;20018;-50
2024/01/20 12:34:25;;;;;;;27.17;8.98;;;;;;;;;;5004852;28;20085;-48
2024/01/20 12:36:56;;;;;;;24.48;8.35;;;;;;;;;;5004681;28;20238;-48
2024/01/20 12:39:23;;;;;;;18.42;8.57;;;;;;;;;;5004513;28;20038;-45
2024/01/20 12:41:51;;;;;;;27.92;8.90;;;;;;;;;;5004460;28;20023;-47
2024/01/20 12:44:18;;;;;;;22.20;8.88;;;;;;;;;;5027073;28;20037;-44
2024/01/20 12:46:48;;;;;;;20.77;8.45;;;;;;;;;;5027837;28;20199;-46
2024/01/20 12:49:14;;;;;;;21.23;8.63;;;;;;;;;;5023880;28;20037;-44
2024/01/20 12:51:41;;;;;;;22.80;9.13;;;;;;;;;;5008100;28;20045;-44
2024/01/20 12:54:08;;;;;;;24.02;8.48;;;;;;;;;;5023723;28;20018;-45
2024/01/20 12:56:37;;;;;;;21.35;8.45;;;;;;;;;;5027744;28;20381;-45
2024/01/20 12:59:04;;;;;;;23.75;8.73;;;;;;;;;;5027637;28;20121;-44
2024/01/20 13:01:31;;;;;;;23.45;8.13;;;;;;;;;;5027461;28;20024;-46
2024/01/20 13:03:58;;;;;;;23.80;8.40;;;;;;;;;;5013458;28;20169;-46
2024/01/20 13:06:25;;;;;;;24.05;8.55;;;;;;;;;;5027540;28;20077;-44
2024/01/20 13:08:51;;;;;;;15.82;7.70;;;;;;;;;;5027411;28;20073;-45
2024/01/20 13:11:18;;;;;;;22.63;8.30;;;;;;;;;;5027342;28;20045;-45
2024/01/20 13:13:47;;;;;;;17.58;8.35;;;;;;;;;;5027454;28;20178;-49
2024/01/20 13:16:14;;;;;;;27.50;8.52;;;;;;;;;;5027297;28;20025;-43
2024/01/20 13:18:40;;;;;;;13.88;7.72;;;;;;;;;;5027470;28;20029;-52
2024/01/20 13:21:07;;;;;;;27.48;8.35;;;;;;;;;;5022540;28;20030;-51
2024/01/20 13:23:34;;;;;;;17.23;7.90;;;;;;;;;;5021501;28;20049;-45
2024/01/20 13:26:01;;;;;;;16.23;8.13;;;;;;;;;;5019526;28;20029;-48
2024/01/20 13:28:29;;;;;;;17.40;7.68;;;;;;;;;;5024842;28;20030;-54
2024/01/20 13:30:55;;;;;;;20.55;7.72;;;;;;;;;;5027292;28;20270;-56
2024/01/20 13:33:24;;;;;;;18.42;8.00;;;;;;;;;;5021989;28;20025;-44
2024/01/20 13:35:52;;;;;;;17.08;8.13;;;;;;;;;;5018399;28;20049;-51
2024/01/20 13:38:19;;;;;;;16.45;7.72;;;;;;;;;;5025074;28;20057;-50
2024/01/20 13:40:46;;;;;;;12.45;6.82;;;;;;;;;;5025305;28;20033;-47
2024/01/20 13:43:13;;;;;;;21.75;7.78;;;;;;;;;;5019703;28;20014;-52
2024/01/20 13:45:39;;;;;;;15.27;6.78;;;;;;;;;;5024969;28;20034;-46
2024/01/20 13:48:06;;;;;;;14.15;6.72;;;;;;;;;;5019876;28;20018;-48
2024/01/20 13:50:33;;;;;;;17.98;7.28;;;;;;;;;;5016935;28;20215;-51
2024/01/20 13:53:00;;;;;;;14.63;7.63;;;;;;;;;;5023263;28;20025;-53
2024/01/20 13:55:27;;;;;;;13.32;7.07;;;;;;;;;;5025012;28;20045;-48
2024/01/20 13:57:54;;;;;;;10.80;6.82;;;;;;;;;;5022863;28;20045;-51
2024/01/20 14:00:20;;;;;;;10.73;7.05;;;;;;;;;;5019300;28;20030;-53
2024/01/20 14:02:47;;;;;;;11.93;6.93;;;;;;;;;;5021138;28;20101;-47
2024/01/20 14:05:14;;;;;;;12.02;6.70;;;;;;;;;;5016650;28;20030;-45
2024/01/20 14:07:40;;;;;;;16.02;6.47;;;;;;;;;;5022144;28;20026;-49
2024/01/20 14:10:07;;;;;;;9.95;6.18;;;;;;;;;;5026283;28;20042;-54
2024/01/20 14:12:34;;;;;;;10.45;6.90;;;;;;;;;;5024511;28;20052;-47
2024/01/20 14:15:00;;;;;;;12.02;6.47;;;;;;;;;;5021757;28;20202;-46
2024/01/20 14:17:28;;;;;;;24.63;7.20;;;;;;;;;;5021921;28;20228;-50
2024/01/20 14:19:55;;;;;;;24.85;7.05;;;;;;;;;;5020534;28;20034;-48
2024/01/20 14:22:24;;;;;;;23.52;7.30;;;;;;;;;;5015361;28;20030;-44
2024/01/20 14:24:51;;;;;;;20.33;7.05;;;;;;;;;;5020733;28;20093;-44
2024/01/20 14:27:18;;;;;;;17.02;7.07;;;;;;;;;;5025823;28;20048;-46
2024/01/20 14:29:44;;;;;;;16.40;7.32;;;;;;;;;;5026008;28;20034;-48